Hlavní strana
METAR-TAF:

METAR-TAF

Letiště :

Anderson, Jižní Karolína, Spojené státy americké

zeměpisná šířka: 34-29-52N, zeměpisná délka: 082-42-35W, výška: 238 m

Aktuální stav počasí

Zpráva byla vytvořena před 32 minutami, v 17:56 UTC
Západojihozápadní vítr 11 kt
Teplota 7°C
Vlhkost vzduchu 33%
Tlak 1020 hPa
Viditelnost: 16.1 km
Jasno

METAR: KAND 271756Z AUTO 24011KT 10SM CLR 07/M08 A3012 RMK AO2 SLP199 T00721078 10078 20017 50002

Čas: 13:28 (18:28 UTC)

Předpověď počasí

Zpráva byla vytvořena před 51 minutami, v 17:37 UTC
Předpověď platná od 27 v 18 UTC do 28 v 18 UTC
Západní vítr 12 kt s nárazy do 19 kt
Viditelnost: 10 km
Jasno
Od 28 v 0300 UTC
Západní vítr 6 kt
Viditelnost: 10 km
Jasno
Od 28 v 1600 UTC
Západojihozápadní vítr 14 kt s nárazy do 21 kt
Viditelnost: 10 km
Polojasno ve výšce 8000 ft

TAF: KAND 271737Z 2718/2818 28012G19KT P6SM SKC FM280300 26006KT P6SM SKC FM281600 25014G21KT P6SM SCT080

Stav a předpovědi počasí z více než 4 000 letišť (zprávy METAR a TAF).

Červené a žluté tečky na mapě představují dostupné meteorologické stanice.

Když kurzor umístíte na tečku, zobrazí se název stanice.

Pak kliknutím zobrazíte stav a předpověď počasí.

Chcete-li změnit mapu, kliknutím na zelené tlačítko se znaménkem +mapu přiblížíte, kliknutím na zelené tlačítko se znaménkem – mapu oddálíte a kliknutím na zelené šipky přejdete na sousední mapy.


METAR-TAF: